Time;durP1;ratioP1;P1;durP2;ratioP2;P2;SDS_P1;SDS_P2;PMS_P1;PMS_P2;Temp;Humidity;BMP_temperature;BMP_pressure;BME280_temperature;BME280_humidity;BME280_pressure;Samples;Min_cycle;Max_cycle;Signal;HPM_P1;HPM_P2
2022/11/29 00:01:09;;;;;;;1.23;0.90;;;;;;;;;;1774823;79;21045;-49
2022/11/29 00:03:36;;;;;;;5.83;1.30;;;;;;;;;;1746007;79;21084;-51
2022/11/29 00:06:05;;;;;;;4.73;2.23;;;;;;;;;;1773704;79;20998;-48
2022/11/29 00:08:32;;;;;;;1.60;0.90;;;;;;;;;;1771121;79;21819;-49
2022/11/29 00:11:09;;;;;;;1.90;1.30;;;;;;;;;;1769706;79;21033;-50
2022/11/29 00:13:35;;;;;;;2.77;1.50;;;;;;;;;;1745712;80;21549;-48
2022/11/29 00:16:04;;;;;;;1.83;1.40;;;;;;;;;;1745142;80;21100;-49
2022/11/29 00:18:31;;;;;;;1.60;1.40;;;;;;;;;;1741144;80;21057;-51
2022/11/29 00:20:57;;;;;;;3.33;1.77;;;;;;;;;;1743636;80;23378;-50
2022/11/29 00:23:23;;;;;;;1.97;1.67;;;;;;;;;;1775172;79;21531;-52
2022/11/29 00:25:49;;;;;;;2.13;1.30;;;;;;;;;;1767582;79;21064;-52
2022/11/29 00:28:15;;;;;;;2.60;1.87;;;;;;;;;;1767327;79;21131;-50
2022/11/29 00:30:41;;;;;;;3.33;1.60;;;;;;;;;;1772782;79;21048;-51
2022/11/29 00:33:08;;;;;;;4.17;2.67;;;;;;;;;;1769423;79;22523;-52
2022/11/29 00:35:34;;;;;;;2.27;1.37;;;;;;;;;;1733423;80;22479;-52
2022/11/29 00:38:00;;;;;;;2.37;1.67;;;;;;;;;;1742590;80;21063;-49
2022/11/29 00:40:26;;;;;;;2.63;1.73;;;;;;;;;;1746071;80;21127;-49
2022/11/29 00:42:52;;;;;;;2.87;2.00;;;;;;;;;;1744885;80;21113;-48
2022/11/29 00:45:18;;;;;;;2.80;2.07;;;;;;;;;;1747300;80;23380;-49
2022/11/29 00:47:44;;;;;;;3.73;2.00;;;;;;;;;;1738386;80;21590;-49
2022/11/29 00:50:11;;;;;;;1.50;1.27;;;;;;;;;;1743058;80;21057;-50
2022/11/29 00:52:37;;;;;;;2.23;1.90;;;;;;;;;;1744135;80;21043;-49
2022/11/29 00:55:04;;;;;;;2.73;1.40;;;;;;;;;;1740702;80;21017;-51
2022/11/29 00:57:31;;;;;;;3.47;1.70;;;;;;;;;;1734969;82;21921;-49
2022/11/29 00:59:58;;;;;;;4.17;2.17;;;;;;;;;;1730029;82;21068;-49
2022/11/29 01:02:24;;;;;;;1.97;1.43;;;;;;;;;;1731036;81;21495;-51
2022/11/29 01:04:51;;;;;;;2.57;2.00;;;;;;;;;;1727117;82;21116;-53
2022/11/29 01:07:17;;;;;;;2.57;1.40;;;;;;;;;;1732400;81;21040;-49
2022/11/29 01:09:43;;;;;;;4.60;2.27;;;;;;;;;;1733071;81;21844;-49
2022/11/29 01:12:10;;;;;;;4.47;2.10;;;;;;;;;;1732635;81;21113;-51
2022/11/29 01:14:36;;;;;;;4.03;2.33;;;;;;;;;;1729953;82;21070;-49
2022/11/29 01:17:02;;;;;;;3.87;2.30;;;;;;;;;;1727529;82;21750;-50
2022/11/29 01:19:28;;;;;;;2.13;1.50;;;;;;;;;;1730715;82;21116;-52
2022/11/29 01:21:55;;;;;;;5.33;1.80;;;;;;;;;;1730410;81;22009;-49
2022/11/29 01:24:21;;;;;;;5.53;2.00;;;;;;;;;;1732855;82;21048;-49
2022/11/29 01:26:47;;;;;;;3.30;2.17;;;;;;;;;;1732574;82;21100;-48
2022/11/29 01:29:14;;;;;;;3.13;1.83;;;;;;;;;;1732145;82;21105;-49
2022/11/29 01:31:40;;;;;;;5.03;1.83;;;;;;;;;;1719999;81;21033;-49
2022/11/29 01:34:06;;;;;;;7.17;3.07;;;;;;;;;;1729072;82;21819;-49
2022/11/29 01:36:32;;;;;;;4.30;2.50;;;;;;;;;;1727143;82;20990;-49
2022/11/29 01:38:59;;;;;;;3.67;2.53;;;;;;;;;;1731259;81;21053;-48
2022/11/29 01:41:27;;;;;;;5.67;2.53;;;;;;;;;;1723042;82;21777;-50
2022/11/29 01:44:13;;;;;;;4.50;2.27;;;;;;;;;;1733690;82;21032;-49
2022/11/29 01:46:43;;;;;;;2.63;1.60;;;;;;;;;;1727273;82;22837;-50
2022/11/29 01:49:32;;;;;;;3.60;2.13;;;;;;;;;;1728698;81;21530;-50
2022/11/29 01:52:01;;;;;;;4.73;3.30;;;;;;;;;;1730007;82;21017;-54
2022/11/29 01:54:28;;;;;;;4.00;1.93;;;;;;;;;;1726210;82;21089;-54
2022/11/29 01:59:48;;;;;;;4.27;2.10;;;;;;;;;;1797902;77;27481;-51
2022/11/29 02:02:30;;;;;;;2.90;1.37;;;;;;;;;;1779154;79;21499;-52
2022/11/29 02:04:56;;;;;;;5.37;1.67;;;;;;;;;;1775132;79;22737;-52
2022/11/29 02:07:23;;;;;;;4.17;1.93;;;;;;;;;;1777254;78;21517;-52
2022/11/29 02:09:49;;;;;;;4.37;2.10;;;;;;;;;;1777729;79;21321;-50
2022/11/29 02:12:37;;;;;;;3.97;1.97;;;;;;;;;;1776522;79;21482;-52
2022/11/29 02:15:19;;;;;;;3.43;1.93;;;;;;;;;;1777234;79;21101;-49
2022/11/29 02:17:52;;;;;;;2.90;1.47;;;;;;;;;;1777821;78;21779;-50
2022/11/29 02:20:24;;;;;;;3.53;2.17;;;;;;;;;;1774190;79;21597;-50
2022/11/29 02:23:12;;;;;;;2.33;1.90;;;;;;;;;;1778209;79;21053;-51
2022/11/29 02:26:01;;;;;;;3.77;1.93;;;;;;;;;;1779250;79;21063;-51
2022/11/29 02:29:02;;;;;;;5.10;2.13;;;;;;;;;;1713185;82;22133;-54
2022/11/29 02:31:53;;;;;;;4.30;2.10;;;;;;;;;;1716575;82;21845;-51
2022/11/29 02:34:38;;;;;;;5.63;2.50;;;;;;;;;;1763093;79;21077;-54
2022/11/29 02:37:21;;;;;;;4.73;2.27;;;;;;;;;;1773299;78;21108;-54
2022/11/29 02:40:11;;;;;;;4.07;1.77;;;;;;;;;;1775128;79;21068;-54
2022/11/29 02:43:03;;;;;;;2.30;1.63;;;;;;;;;;1765173;80;21049;-54
2022/11/29 02:45:39;;;;;;;6.43;1.63;;;;;;;;;;1760202;80;23445;-54
2022/11/29 02:48:15;;;;;;;4.07;1.20;;;;;;;;;;1754945;80;21097;-54
2022/11/29 02:50:46;;;;;;;2.33;1.50;;;;;;;;;;1764658;80;21125;-54
2022/11/29 02:53:25;;;;;;;1.93;1.17;;;;;;;;;;1765757;80;21423;-54
2022/11/29 02:56:13;;;;;;;3.17;1.60;;;;;;;;;;1764234;80;21516;-54
2022/11/29 02:59:00;;;;;;;2.77;1.00;;;;;;;;;;1758713;80;21927;-54
2022/11/29 03:01:59;;;;;;;3.77;2.07;;;;;;;;;;1748907;80;21498;-54
2022/11/29 03:04:35;;;;;;;5.10;1.20;;;;;;;;;;1746021;80;22239;-54
2022/11/29 03:07:13;;;;;;;2.60;1.20;;;;;;;;;;1752715;80;21074;-54
2022/11/29 03:09:44;;;;;;;2.27;1.40;;;;;;;;;;1749610;80;21052;-54
2022/11/29 03:12:26;;;;;;;1.80;1.10;;;;;;;;;;1744570;80;21878;-54
2022/11/29 03:15:13;;;;;;;2.23;0.97;;;;;;;;;;1676721;83;21056;-54
2022/11/29 03:17:49;;;;;;;2.97;1.20;;;;;;;;;;1745214;80;21046;-54
2022/11/29 03:20:42;;;;;;;3.33;1.10;;;;;;;;;;1747827;80;21252;-54
2022/11/29 03:23:15;;;;;;;3.40;1.07;;;;;;;;;;1752296;80;21208;-53
2022/11/29 03:26:01;;;;;;;2.17;1.00;;;;;;;;;;1750562;80;21805;-53
2022/11/29 03:28:40;;;;;;;1.87;1.10;;;;;;;;;;1751086;80;21594;-53
2022/11/29 03:31:13;;;;;;;2.97;1.50;;;;;;;;;;1748390;80;21039;-53
2022/11/29 03:33:54;;;;;;;5.87;1.00;;;;;;;;;;1748080;80;21045;-53
2022/11/29 03:42:51;;;;;;;5.37;0.83;;;;;;;;;;1707370;82;21100;-81
2022/11/29 03:45:21;;;;;;;1.67;1.00;;;;;;;;;;1708484;82;22539;-82
2022/11/29 03:48:00;;;;;;;1.70;1.07;;;;;;;;;;1706591;82;21584;-83
2022/11/29 03:50:38;;;;;;;1.90;1.20;;;;;;;;;;1704741;82;21066;-82
2022/11/29 03:53:16;;;;;;;1.60;1.00;;;;;;;;;;1707957;82;21074;-81
2022/11/29 03:55:59;;;;;;;1.77;1.00;;;;;;;;;;1706268;82;21039;-83
2022/11/29 03:58:47;;;;;;;3.70;0.90;;;;;;;;;;1705784;83;21917;-82
2022/11/29 04:01:42;;;;;;;1.33;0.90;;;;;;;;;;1705279;82;21045;-82
2022/11/29 04:04:32;;;;;;;1.20;0.90;;;;;;;;;;1700189;82;21069;-81
2022/11/29 04:07:20;;;;;;;1.40;0.93;;;;;;;;;;1705700;82;21473;-81
2022/11/29 04:10:08;;;;;;;1.40;0.90;;;;;;;;;;1699537;82;21088;-81
2022/11/29 04:12:58;;;;;;;2.07;0.90;;;;;;;;;;1678851;82;22859;-80
2022/11/29 04:15:48;;;;;;;1.90;0.97;;;;;;;;;;1700835;82;21416;-82
2022/11/29 04:18:37;;;;;;;1.50;0.93;;;;;;;;;;1708107;83;21048;-81
2022/11/29 04:21:33;;;;;;;1.97;0.90;;;;;;;;;;1702163;82;21138;-81
2022/11/29 04:24:26;;;;;;;2.10;1.00;;;;;;;;;;1705665;83;21092;-81
2022/11/29 04:27:20;;;;;;;1.47;0.80;;;;;;;;;;1708285;82;21798;-82
2022/11/29 04:29:59;;;;;;;0.90;0.80;;;;;;;;;;1703559;83;21076;-81
2022/11/29 04:32:46;;;;;;;1.30;0.90;;;;;;;;;;1705290;82;21053;-81
2022/11/29 04:35:36;;;;;;;1.00;0.60;;;;;;;;;;1698898;83;21108;-81
2022/11/29 04:38:41;;;;;;;1.43;0.70;;;;;;;;;;1701978;83;21682;-81
2022/11/29 04:41:42;;;;;;;1.00;0.60;;;;;;;;;;1708423;82;21812;-81
2022/11/29 04:44:27;;;;;;;1.73;0.63;;;;;;;;;;1707363;82;21064;-81
2022/11/29 04:46:57;;;;;;;1.95;0.78;;;;;;;;;;1710191;82;21128;-81
2022/11/29 04:49:56;;;;;;;1.30;0.70;;;;;;;;;;1656008;85;21072;-81
2022/11/29 04:52:44;;;;;;;0.83;0.70;;;;;;;;;;1646485;85;21105;-81
2022/11/29 04:55:35;;;;;;;1.00;0.60;;;;;;;;;;1648160;85;23163;-81
2022/11/29 04:58:25;;;;;;;3.03;0.77;;;;;;;;;;1664220;84;21083;-81
2022/11/29 05:01:11;;;;;;;1.17;0.80;;;;;;;;;;1666590;85;21140;-81
2022/11/29 05:03:47;;;;;;;1.30;0.80;;;;;;;;;;1664433;84;21139;-82
2022/11/29 05:06:19;;;;;;;1.93;0.90;;;;;;;;;;1661255;84;21049;-82
2022/11/29 05:09:06;;;;;;;2.30;0.90;;;;;;;;;;1664120;84;22471;-81
2022/11/29 05:11:54;;;;;;;1.93;0.70;;;;;;;;;;1664429;85;21020;-82
2022/11/29 05:14:33;;;;;;;2.03;0.70;;;;;;;;;;1663609;84;21053;-82
2022/11/29 05:17:26;;;;;;;3.27;0.90;;;;;;;;;;1663562;84;22192;-81
2022/11/29 05:20:02;;;;;;;1.20;0.80;;;;;;;;;;1666771;84;21492;-81
2022/11/29 05:22:35;;;;;;;0.80;0.60;;;;;;;;;;1665622;84;21826;-82
2022/11/29 05:25:12;;;;;;;1.43;0.60;;;;;;;;;;1652643;84;21539;-82
2022/11/29 05:28:04;;;;;;;1.33;0.60;;;;;;;;;;1649154;83;21371;-82
2022/11/29 05:30:36;;;;;;;1.30;0.50;;;;;;;;;;1662508;84;21097;-81
2022/11/29 05:33:21;;;;;;;0.93;0.60;;;;;;;;;;1648640;84;21568;-80
2022/11/29 05:35:51;;;;;;;;;;;;;;;;;;1670829;84;23118;-81
2022/11/29 05:38:40;;;;;;;0.70;0.60;;;;;;;;;;1702966;83;21638;-80
2022/11/29 05:41:28;;;;;;;1.33;0.60;;;;;;;;;;1707119;83;21552;-82
2022/11/29 05:44:15;;;;;;;3.07;0.60;;;;;;;;;;1688742;83;21325;-80
2022/11/29 05:46:59;;;;;;;0.93;0.60;;;;;;;;;;1687721;84;21133;-81
2022/11/29 05:49:41;;;;;;;1.90;0.73;;;;;;;;;;1714563;81;21889;-79
2022/11/29 05:52:25;;;;;;;1.27;0.70;;;;;;;;;;1717862;82;21043;-79
2022/11/29 05:55:01;;;;;;;2.05;0.62;;;;;;;;;;1726811;81;21021;-79
2022/11/29 05:57:34;;;;;;;1.47;0.70;;;;;;;;;;1721269;82;21602;-79
2022/11/29 06:00:01;;;;;;;1.00;0.80;;;;;;;;;;1719569;82;21677;-79
2022/11/29 06:02:50;;;;;;;1.00;0.70;;;;;;;;;;1721573;81;22164;-80
2022/11/29 06:05:32;;;;;;;1.10;0.70;;;;;;;;;;1718752;82;21106;-79
2022/11/29 06:08:01;;;;;;;1.30;0.60;;;;;;;;;;1726713;81;21501;-80
2022/11/29 06:10:31;;;;;;;2.10;0.60;;;;;;;;;;1671219;82;21111;-79
2022/11/29 06:13:15;;;;;;;1.03;0.70;;;;;;;;;;1726557;82;21001;-81
2022/11/29 06:16:08;;;;;;;1.87;0.80;;;;;;;;;;1727449;82;21873;-80
2022/11/29 06:18:50;;;;;;;3.23;1.17;;;;;;;;;;1725210;81;21271;-81
2022/11/29 06:21:23;;;;;;;1.53;0.80;;;;;;;;;;1717532;81;21035;-80
2022/11/29 06:24:05;;;;;;;1.83;0.80;;;;;;;;;;1721286;81;22154;-81
2022/11/29 06:26:55;;;;;;;1.50;0.90;;;;;;;;;;1717986;81;21040;-81
2022/11/29 06:29:31;;;;;;;1.50;0.87;;;;;;;;;;1725459;82;21786;-81
2022/11/29 06:32:04;;;;;;;2.00;0.80;;;;;;;;;;1726188;81;21006;-82
2022/11/29 06:34:34;;;;;;;2.07;0.83;;;;;;;;;;1726046;81;21020;-81
2022/11/29 06:37:20;;;;;;;1.63;0.93;;;;;;;;;;1720596;81;21071;-80
2022/11/29 06:39:47;;;;;;;2.00;1.40;;;;;;;;;;1728452;81;21048;-81
2022/11/29 06:42:13;;;;;;;3.33;1.20;;;;;;;;;;1726168;80;21926;-80
2022/11/29 06:44:40;;;;;;;4.10;1.17;;;;;;;;;;1729209;82;21500;-81
2022/11/29 06:47:11;;;;;;;4.00;1.67;;;;;;;;;;1730880;80;21028;-80
2022/11/29 06:50:04;;;;;;;2.43;1.30;;;;;;;;;;1731743;80;21100;-81
2022/11/29 06:52:53;;;;;;;2.87;1.33;;;;;;;;;;1729945;80;21088;-81
2022/11/29 06:55:38;;;;;;;4.63;2.50;;;;;;;;;;1681168;82;21822;-81
2022/11/29 06:58:31;;;;;;;2.05;1.32;;;;;;;;;;1706651;82;21061;-81
2022/11/29 07:01:07;;;;;;;5.40;1.20;;;;;;;;;;1726429;82;21100;-81
2022/11/29 07:03:44;;;;;;;1.73;1.33;;;;;;;;;;1730858;80;21067;-82
2022/11/29 07:06:14;;;;;;;3.73;1.30;;;;;;;;;;1729477;82;21628;-81
2022/11/29 07:08:40;;;;;;;2.80;1.43;;;;;;;;;;1731338;80;22124;-81
2022/11/29 07:11:08;;;;;;;6.07;1.97;;;;;;;;;;1728779;82;21091;-82
2022/11/29 07:13:34;;;;;;;2.63;1.50;;;;;;;;;;1727221;80;21530;-81
2022/11/29 07:16:07;;;;;;;2.80;1.90;;;;;;;;;;1731810;81;21572;-81
2022/11/29 07:18:43;;;;;;;4.40;2.10;;;;;;;;;;1727223;82;21083;-81
2022/11/29 07:21:25;;;;;;;3.13;2.07;;;;;;;;;;1731248;80;22428;-81
2022/11/29 07:24:01;;;;;;;3.13;2.00;;;;;;;;;;1728591;82;20993;-81
2022/11/29 07:26:34;;;;;;;5.00;2.47;;;;;;;;;;1716302;80;21023;-81
2022/11/29 07:29:27;;;;;;;6.53;2.63;;;;;;;;;;1735775;81;20989;-80
2022/11/29 07:32:13;;;;;;;4.80;2.60;;;;;;;;;;1733025;80;21027;-81
2022/11/29 07:34:46;;;;;;;4.57;1.97;;;;;;;;;;1728292;81;21806;-81
2022/11/29 07:37:35;;;;;;;4.03;2.70;;;;;;;;;;1733499;80;21028;-82
2022/11/29 07:40:18;;;;;;;4.70;2.67;;;;;;;;;;1736512;82;21055;-81
2022/11/29 07:43:03;;;;;;;7.20;2.87;;;;;;;;;;1726186;82;21038;-81
2022/11/29 07:45:34;;;;;;;;;;;;;;;;;;1730065;81;21012;-81
2022/11/29 07:48:00;;;;;;;7.73;3.03;;;;;;;;;;1731621;82;21816;-81
2022/11/29 07:50:27;;;;;;;6.53;2.53;;;;;;;;;;1727963;81;20993;-83
2022/11/29 07:52:53;;;;;;;4.93;2.50;;;;;;;;;;1705394;82;21677;-80
2022/11/29 07:55:20;;;;;;;6.00;3.33;;;;;;;;;;1729980;81;21640;-80
2022/11/29 07:57:46;;;;;;;5.23;2.90;;;;;;;;;;1721195;81;21052;-81
2022/11/29 08:00:15;;;;;;;6.80;2.50;;;;;;;;;;1733281;81;22455;-81
2022/11/29 08:02:41;;;;;;;5.17;2.57;;;;;;;;;;1729038;81;21075;-81
2022/11/29 08:05:08;;;;;;;6.27;2.53;;;;;;;;;;1730587;81;21545;-81
2022/11/29 08:07:38;;;;;;;5.47;2.60;;;;;;;;;;1729219;81;21057;-81
2022/11/29 08:10:06;;;;;;;6.07;2.97;;;;;;;;;;1726175;82;21008;-82
2022/11/29 08:12:33;;;;;;;4.53;2.13;;;;;;;;;;1728375;81;21836;-82
2022/11/29 08:14:59;;;;;;;3.47;2.63;;;;;;;;;;1725557;82;21075;-81
2022/11/29 08:17:25;;;;;;;5.70;2.00;;;;;;;;;;1725228;81;21515;-81
2022/11/29 08:19:51;;;;;;;8.50;3.00;;;;;;;;;;1730633;81;21076;-81
2022/11/29 08:22:18;;;;;;;5.63;2.83;;;;;;;;;;1726225;81;21032;-81
2022/11/29 08:24:44;;;;;;;7.57;3.07;;;;;;;;;;1730851;81;22269;-81
2022/11/29 08:27:10;;;;;;;6.13;2.63;;;;;;;;;;1728959;82;21306;-81
2022/11/29 08:29:36;;;;;;;8.57;2.70;;;;;;;;;;1728562;81;21028;-81
2022/11/29 08:32:02;;;;;;;5.67;2.60;;;;;;;;;;1725166;82;21577;-81
2022/11/29 08:34:28;;;;;;;4.47;2.47;;;;;;;;;;1724494;81;21019;-80
2022/11/29 08:36:57;;;;;;;4.23;2.07;;;;;;;;;;1727030;81;21803;-80
2022/11/29 08:39:23;;;;;;;7.60;3.13;;;;;;;;;;1728930;82;21620;-80
2022/11/29 08:41:50;;;;;;;5.60;2.37;;;;;;;;;;1731295;81;21091;-81
2022/11/29 08:44:17;;;;;;;6.53;2.67;;;;;;;;;;1734174;80;21017;-80
2022/11/29 08:49:28;;;;;;;6.62;2.50;;;;;;;;;;1734362;80;21318;-81
2022/11/29 08:53:40;;;;;;;8.83;3.10;;;;;;;;;;1734804;80;21016;-80
2022/11/29 08:54:22;;;;;;;6.20;2.47;;;;;;;;;;1729225;80;21044;-81
2022/11/29 08:56:48;;;;;;;5.67;2.90;;;;;;;;;;1735110;80;22261;-81
2022/11/29 08:59:15;;;;;;;9.20;3.30;;;;;;;;;;1739733;80;21571;-81
2022/11/29 09:01:41;;;;;;;9.83;3.53;;;;;;;;;;1737377;82;21811;-80
2022/11/29 09:04:09;;;;;;;8.23;2.93;;;;;;;;;;1733895;80;21563;-81
2022/11/29 09:06:40;;;;;;;8.17;2.93;;;;;;;;;;1695116;82;21086;-81
2022/11/29 09:09:06;;;;;;;8.60;3.57;;;;;;;;;;1731885;80;21078;-81
2022/11/29 09:11:33;;;;;;;7.33;3.33;;;;;;;;;;1733565;80;21081;-80
2022/11/29 09:14:02;;;;;;;7.93;3.80;;;;;;;;;;1728329;82;22520;-81
2022/11/29 09:16:29;;;;;;;8.07;3.50;;;;;;;;;;1739447;80;21093;-80
2022/11/29 09:18:56;;;;;;;7.23;3.60;;;;;;;;;;1735589;80;21347;-81
2022/11/29 09:21:23;;;;;;;8.13;3.37;;;;;;;;;;1735570;82;21036;-81
2022/11/29 09:23:56;;;;;;;7.67;3.57;;;;;;;;;;1736160;82;21020;-79
2022/11/29 09:26:18;;;;;;;9.33;3.60;;;;;;;;;;1732418;80;22538;-78
2022/11/29 09:28:46;;;;;;;10.97;5.47;;;;;;;;;;1736210;80;21071;-79
2022/11/29 09:31:13;;;;;;;11.27;4.20;;;;;;;;;;1734983;80;21516;-78
2022/11/29 09:33:39;;;;;;;10.90;4.67;;;;;;;;;;1732541;80;21164;-77
2022/11/29 09:36:07;;;;;;;11.03;3.90;;;;;;;;;;1736350;82;21129;-79
2022/11/29 09:38:33;;;;;;;10.97;4.30;;;;;;;;;;1734116;82;22548;-78
2022/11/29 09:41:22;;;;;;;11.20;5.57;;;;;;;;;;1735263;81;21476;-80
2022/11/29 09:44:08;;;;;;;11.60;5.17;;;;;;;;;;1725448;80;21036;-79
2022/11/29 09:46:47;;;;;;;9.10;3.83;;;;;;;;;;1730510;82;21681;-80
2022/11/29 09:49:32;;;;;;;10.03;4.67;;;;;;;;;;1729436;81;21067;-80
2022/11/29 09:52:08;;;;;;;9.48;4.80;;;;;;;;;;1721885;81;21911;-80
2022/11/29 09:54:59;;;;;;;7.37;4.47;;;;;;;;;;1725573;82;21096;-80
2022/11/29 09:57:25;;;;;;;8.00;4.57;;;;;;;;;;1722644;82;21052;-80
2022/11/29 09:59:53;;;;;;;8.20;4.87;;;;;;;;;;1722240;81;21024;-80
2022/11/29 10:02:23;;;;;;;6.07;5.20;;;;;;;;;;1729208;82;21040;-81
2022/11/29 10:04:55;;;;;;;7.93;4.67;;;;;;;;;;1723871;81;21830;-80
2022/11/29 10:07:26;;;;;;;7.10;4.03;;;;;;;;;;1731806;82;21001;-80
2022/11/29 10:10:19;;;;;;;6.67;5.20;;;;;;;;;;1727810;82;21029;-80
2022/11/29 10:12:54;;;;;;;7.37;4.47;;;;;;;;;;1716592;81;21083;-81
2022/11/29 10:15:26;;;;;;;7.90;4.85;;;;;;;;;;1732848;82;21080;-81
2022/11/29 10:18:01;;;;;;;6.23;4.70;;;;;;;;;;1723606;82;21892;-80
2022/11/29 10:20:29;;;;;;;6.47;3.70;;;;;;;;;;1732618;82;21017;-81
2022/11/29 10:23:05;;;;;;;6.10;3.87;;;;;;;;;;1703368;82;21587;-80
2022/11/29 10:25:49;;;;;;;7.63;3.73;;;;;;;;;;1733462;82;21009;-80
2022/11/29 10:28:19;;;;;;;8.37;4.83;;;;;;;;;;1731013;82;21393;-80
2022/11/29 10:30:45;;;;;;;7.83;3.60;;;;;;;;;;1692874;82;21845;-81
2022/11/29 10:33:29;;;;;;;5.23;4.07;;;;;;;;;;1730233;81;21030;-80
2022/11/29 10:35:55;;;;;;;6.57;4.53;;;;;;;;;;1687742;82;21105;-80
2022/11/29 10:38:22;;;;;;;8.80;4.63;;;;;;;;;;1729098;81;21086;-80
2022/11/29 10:40:52;;;;;;;8.97;5.60;;;;;;;;;;1730454;81;21068;-81
2022/11/29 10:43:18;;;;;;;8.80;6.07;;;;;;;;;;1730363;82;21803;-81
2022/11/29 10:45:49;;;;;;;6.70;4.90;;;;;;;;;;1731130;81;21052;-80
2022/11/29 10:48:16;;;;;;;6.60;4.47;;;;;;;;;;1730681;81;22204;-80
2022/11/29 10:50:43;;;;;;;5.83;4.67;;;;;;;;;;1730073;81;21493;-80
2022/11/29 10:53:15;;;;;;;5.57;4.37;;;;;;;;;;1730096;81;21020;-81
2022/11/29 10:55:49;;;;;;;7.13;3.97;;;;;;;;;;1728964;81;21856;-81
2022/11/29 10:58:19;;;;;;;8.97;4.50;;;;;;;;;;1730149;81;21056;-81
2022/11/29 11:00:57;;;;;;;7.50;4.40;;;;;;;;;;1734455;81;21048;-80
2022/11/29 11:03:45;;;;;;;7.87;4.67;;;;;;;;;;1731474;81;21028;-80
2022/11/29 11:06:19;;;;;;;7.03;4.37;;;;;;;;;;1734130;81;21036;-81
2022/11/29 11:08:52;;;;;;;8.50;4.60;;;;;;;;;;1731364;81;22116;-83
2022/11/29 11:11:28;;;;;;;9.05;5.33;;;;;;;;;;1733686;82;20982;-80
2022/11/29 11:14:18;;;;;;;9.40;5.40;;;;;;;;;;1732044;82;21054;-80
2022/11/29 11:16:44;;;;;;;8.83;5.57;;;;;;;;;;1729544;82;21298;-80
2022/11/29 11:19:30;;;;;;;9.03;5.20;;;;;;;;;;1733840;81;21496;-80
2022/11/29 11:21:57;;;;;;;9.87;6.03;;;;;;;;;;1731292;81;22820;-79
2022/11/29 11:24:27;;;;;;;10.53;6.83;;;;;;;;;;1732203;81;21576;-80
2022/11/29 11:26:53;;;;;;;13.03;7.37;;;;;;;;;;1728923;81;21122;-79
2022/11/29 11:29:26;;;;;;;9.53;5.73;;;;;;;;;;1733656;81;21032;-80
2022/11/29 11:31:55;;;;;;;7.67;6.13;;;;;;;;;;1733562;81;21056;-81
2022/11/29 11:34:32;;;;;;;13.97;6.53;;;;;;;;;;1732003;81;21782;-80
2022/11/29 11:37:20;;;;;;;8.57;5.17;;;;;;;;;;1729319;82;21047;-81
2022/11/29 11:39:48;;;;;;;9.10;5.00;;;;;;;;;;1728305;82;21041;-80
2022/11/29 11:42:36;;;;;;;8.53;4.73;;;;;;;;;;1727087;82;21259;-79
2022/11/29 11:45:12;;;;;;;11.77;5.23;;;;;;;;;;1731270;81;21032;-79
2022/11/29 11:47:49;;;;;;;7.23;4.33;;;;;;;;;;1707575;83;22475;-81
2022/11/29 11:50:33;;;;;;;8.23;4.90;;;;;;;;;;1732010;81;21053;-80
2022/11/29 11:53:08;;;;;;;9.20;6.15;;;;;;;;;;1721512;81;20978;-80
2022/11/29 11:55:47;;;;;;;9.67;5.03;;;;;;;;;;1724496;79;74371;-49
2022/11/29 11:58:16;;;;;;;9.73;5.27;;;;;;;;;;1709507;82;21027;-52
2022/11/29 12:00:51;;;;;;;10.27;6.43;;;;;;;;;;1730178;80;21951;-50
2022/11/29 12:03:19;;;;;;;;;;;;;;;;;;1695656;82;21019;-50
2022/11/29 12:05:47;;;;;;;14.47;5.67;;;;;;;;;;1698155;82;20290;-52
2022/11/29 12:08:13;;;;;;;10.43;5.40;;;;;;;;;;1648131;85;21075;-48
2022/11/29 12:10:39;;;;;;;6.57;4.83;;;;;;;;;;1646875;86;21087;-49
2022/11/29 12:13:09;;;;;;;9.97;5.93;;;;;;;;;;1694650;82;21835;-49
2022/11/29 12:15:37;;;;;;;8.67;4.50;;;;;;;;;;1651076;85;21103;-51
2022/11/29 12:18:07;;;;;;;11.60;5.43;;;;;;;;;;1648588;85;21073;-51
2022/11/29 12:20:40;;;;;;;9.07;6.13;;;;;;;;;;1648531;85;21714;-50
2022/11/29 12:23:13;;;;;;;10.73;4.83;;;;;;;;;;1695826;82;21088;-52
2022/11/29 12:26:09;;;;;;;9.77;5.77;;;;;;;;;;1692643;82;22520;-50
2022/11/29 12:28:37;;;;;;;10.53;5.77;;;;;;;;;;1693006;82;21065;-51
2022/11/29 12:31:27;;;;;;;12.10;4.63;;;;;;;;;;1695762;82;21478;-50
2022/11/29 12:33:57;;;;;;;6.67;3.63;;;;;;;;;;1671904;84;21065;-50
2022/11/29 12:36:33;;;;;;;6.27;3.53;;;;;;;;;;1694395;82;21057;-50
2022/11/29 12:39:08;;;;;;;6.17;2.73;;;;;;;;;;1692994;82;21856;-53
2022/11/29 12:41:55;;;;;;;8.30;3.57;;;;;;;;;;1696709;83;21057;-51
2022/11/29 12:44:34;;;;;;;8.53;3.17;;;;;;;;;;1670514;84;21574;-52
2022/11/29 12:47:19;;;;;;;6.93;3.20;;;;;;;;;;1698320;82;21026;-53
2022/11/29 12:50:05;;;;;;;6.53;3.37;;;;;;;;;;1610153;87;21693;-49
2022/11/29 12:52:35;;;;;;;7.03;3.07;;;;;;;;;;1738042;81;21831;-49
2022/11/29 12:55:21;;;;;;;8.70;4.90;;;;;;;;;;1736933;82;21072;-54
2022/11/29 12:58:00;;;;;;;8.30;4.67;;;;;;;;;;1704715;82;21578;-51
2022/11/29 13:00:30;;;;;;;6.47;3.80;;;;;;;;;;1708233;82;21081;-51
2022/11/29 13:03:17;;;;;;;9.67;4.13;;;;;;;;;;1708325;83;21061;-51
2022/11/29 13:05:50;;;;;;;7.90;3.10;;;;;;;;;;1703601;82;21978;-49
2022/11/29 13:08:29;;;;;;;8.20;3.60;;;;;;;;;;1706210;82;21556;-49
2022/11/29 13:11:06;;;;;;;16.43;5.40;;;;;;;;;;1658523;84;21037;-51
2022/11/29 13:13:45;;;;;;;7.60;3.60;;;;;;;;;;1703273;83;21356;-50
2022/11/29 13:18:14;;;;;;;7.13;3.63;;;;;;;;;;1776840;78;27729;-51
2022/11/29 13:20:50;;;;;;;8.60;3.67;;;;;;;;;;1747819;78;21041;-50
2022/11/29 13:23:35;;;;;;;8.83;3.90;;;;;;;;;;1779284;78;22011;-49
2022/11/29 13:26:03;;;;;;;7.95;3.22;;;;;;;;;;1773722;78;21577;-50
2022/11/29 13:28:32;;;;;;;7.10;3.77;;;;;;;;;;1774844;78;21064;-51
2022/11/29 13:31:06;;;;;;;9.07;4.17;;;;;;;;;;1774238;78;21092;-52
2022/11/29 13:33:54;;;;;;;10.15;4.90;;;;;;;;;;1770362;78;21113;-51
2022/11/29 13:36:48;;;;;;;7.67;4.20;;;;;;;;;;1774672;78;22436;-51
2022/11/29 13:39:53;;;;;;;10.73;3.67;;;;;;;;;;1774966;78;20966;-51
2022/11/29 13:42:25;;;;;;;9.30;4.07;;;;;;;;;;1776918;79;21041;-52
2022/11/29 13:45:12;;;;;;;7.97;3.00;;;;;;;;;;1772009;78;21026;-52
2022/11/29 13:47:52;;;;;;;5.00;3.07;;;;;;;;;;1770277;78;21370;-52
2022/11/29 13:50:37;;;;;;;7.20;3.20;;;;;;;;;;1768481;79;22283;-52
2022/11/29 13:53:21;;;;;;;6.28;2.55;;;;;;;;;;1772833;78;21490;-52
2022/11/29 13:55:59;;;;;;;6.53;2.52;;;;;;;;;;1770738;79;21507;-53
2022/11/29 13:58:36;;;;;;;3.60;2.57;;;;;;;;;;1758249;78;21530;-52
2022/11/29 14:01:10;;;;;;;8.83;3.33;;;;;;;;;;1765844;78;20963;-52
2022/11/29 14:03:39;;;;;;;4.90;2.07;;;;;;;;;;1769123;78;21777;-53
2022/11/29 14:06:23;;;;;;;4.50;2.33;;;;;;;;;;1763431;78;21111;-53
2022/11/29 14:08:55;;;;;;;7.00;2.77;;;;;;;;;;1750906;78;21444;-53
2022/11/29 14:11:42;;;;;;;8.13;3.20;;;;;;;;;;1765335;78;21030;-53
2022/11/29 14:14:30;;;;;;;4.00;2.53;;;;;;;;;;1769044;78;21054;-53
2022/11/29 14:17:01;;;;;;;5.97;2.60;;;;;;;;;;1768279;78;21827;-52
2022/11/29 14:19:34;;;;;;;6.30;2.73;;;;;;;;;;1754887;79;21470;-53
2022/11/29 14:22:04;;;;;;;6.80;3.30;;;;;;;;;;1763201;79;21034;-52
2022/11/29 14:24:34;;;;;;;5.60;3.33;;;;;;;;;;1755632;79;21049;-53
2022/11/29 14:27:08;;;;;;;8.10;3.70;;;;;;;;;;1758393;79;21145;-53
2022/11/29 14:29:52;;;;;;;10.00;3.53;;;;;;;;;;1759959;79;21843;-52
2022/11/29 14:32:25;;;;;;;5.57;2.80;;;;;;;;;;1759821;79;21855;-52
2022/11/29 14:35:13;;;;;;;7.60;3.63;;;;;;;;;;1759481;80;21030;-53
2022/11/29 14:38:11;;;;;;;9.07;3.60;;;;;;;;;;1760504;79;21109;-52
2022/11/29 14:40:51;;;;;;;6.40;3.07;;;;;;;;;;1758934;79;21386;-52
2022/11/29 14:43:29;;;;;;;8.17;3.93;;;;;;;;;;1750412;79;21801;-53
2022/11/29 14:46:15;;;;;;;6.17;2.50;;;;;;;;;;1758812;79;21070;-53
2022/11/29 14:48:46;;;;;;;5.97;3.53;;;;;;;;;;1697418;83;21139;-52
2022/11/29 14:51:14;;;;;;;7.17;2.90;;;;;;;;;;1762759;79;21022;-53
2022/11/29 14:53:41;;;;;;;6.57;3.53;;;;;;;;;;1760638;79;21049;-53
2022/11/29 14:56:37;;;;;;;7.10;2.60;;;;;;;;;;1761479;79;23107;-49
2022/11/29 14:59:42;;;;;;;6.43;2.50;;;;;;;;;;1749753;79;21030;-52
2022/11/29 15:02:20;;;;;;;4.12;2.92;;;;;;;;;;1762779;79;21022;-50
2022/11/29 15:04:48;;;;;;;6.53;3.50;;;;;;;;;;1755957;79;21046;-50
2022/11/29 15:07:28;;;;;;;11.87;5.27;;;;;;;;;;1755828;79;21045;-51
2022/11/29 15:09:59;;;;;;;6.47;3.13;;;;;;;;;;1769271;79;21820;-49
2022/11/29 15:12:28;;;;;;;5.63;3.77;;;;;;;;;;1755210;80;21433;-51
2022/11/29 15:15:30;;;;;;;8.60;4.10;;;;;;;;;;1758786;79;21042;-53
2022/11/29 15:18:03;;;;;;;7.63;3.67;;;;;;;;;;1762181;79;20959;-49
2022/11/29 15:20:41;;;;;;;6.80;3.67;;;;;;;;;;1766463;79;21050;-51
2022/11/29 15:23:12;;;;;;;5.67;2.90;;;;;;;;;;1761130;79;22876;-51
2022/11/29 15:25:47;;;;;;;8.80;4.50;;;;;;;;;;1761957;79;21031;-51
2022/11/29 15:28:23;;;;;;;5.28;3.90;;;;;;;;;;1760460;79;21065;-50
2022/11/29 15:30:52;;;;;;;12.07;6.97;;;;;;;;;;1765812;79;21616;-51
2022/11/29 15:33:20;;;;;;;8.67;4.47;;;;;;;;;;1761449;79;21055;-52
2022/11/29 15:35:52;;;;;;;6.43;4.27;;;;;;;;;;1763777;79;22014;-49
2022/11/29 15:38:19;;;;;;;11.03;4.83;;;;;;;;;;1759711;79;21034;-50
2022/11/29 15:40:52;;;;;;;8.07;4.60;;;;;;;;;;1766243;79;21053;-51
2022/11/29 15:43:31;;;;;;;8.63;4.63;;;;;;;;;;1765418;79;21061;-49
2022/11/29 15:45:57;;;;;;;7.80;3.67;;;;;;;;;;1767513;79;21632;-50
2022/11/29 15:48:25;;;;;;;3.30;2.40;;;;;;;;;;1767149;79;21806;-51